Airport ID:KO69
Update Time (UTC):31/05/2020 14:11
Wind Speed (Knots):2
Wind Direction (Magnetic):300
Temperature (°C):15
Dew Point (°C):15
Humidity (%):99
Altimeter (inHg):29.98
Density Altitude (Feet):
Visibility (Miles):5
Clouds (Hundreds of feet):OVC017
Present Weather:BR
METAR:METAR KO69 311410Z AUTO 00000KT 5SM BR OVC017 15/15 A2998 RMK A01

The data displayed is for advisory purposes only and is not to be used for flight planning or operations.